Terminal Aerodrome Forecast
Issued by NWS

Home | Current Version | Previous Version | Text Only | Print | Product List | Glossary On
Versions: 1 2 3 4 5 6 7 8 9 10 11 12 13 14 15 16 17 18 19 20
000
FTUS45 KPIH 230200 AAA
TAFSUN
TAF AMD
KSUN 230208Z 2302/2324 32009KT P6SM SCT025 BKN100
     FM230300 31005KT 5SM -SN BKN020 OVC050
     FM230500 31009KT P6SM SCT020
     FM231300 31015KT P6SM SKC
     FM231900 16008KT P6SM FEW015
      AMD LTD TO CLD VIS AND WIND 2306/2314=

USA.gov is the U.S. government's official web portal to all federal, state and local government web resources and services.